createdAt,value
2019-05-11T00:02:25.191Z,3.40
2019-05-11T00:04:55.937Z,3.27
2019-05-11T00:07:27.635Z,3.52
2019-05-11T00:09:58.701Z,4.58
2019-05-11T00:12:29.705Z,4.33
2019-05-11T00:15:01.517Z,4.05
2019-05-11T00:17:32.130Z,3.60
2019-05-11T00:20:03.308Z,3.42
2019-05-11T00:22:34.952Z,3.60
2019-05-11T00:25:07.977Z,3.52
2019-05-11T00:27:38.685Z,3.50
2019-05-11T00:30:10.970Z,3.10
2019-05-11T00:32:42.090Z,3.15
2019-05-11T00:35:12.822Z,3.55
2019-05-11T00:37:43.660Z,2.60
2019-05-11T00:40:15.194Z,2.85
2019-05-11T00:42:46.221Z,3.08
2019-05-11T00:45:16.962Z,3.08
2019-05-11T00:47:49.646Z,2.85
2019-05-11T00:50:20.267Z,2.90
2019-05-11T00:52:52.033Z,3.50
2019-05-11T00:55:22.729Z,3.20
2019-05-11T00:57:53.258Z,3.50
2019-05-11T01:00:24.097Z,3.52
2019-05-11T01:02:54.612Z,4.10
2019-05-11T01:05:25.229Z,3.85
2019-05-11T01:07:55.829Z,3.70
2019-05-11T01:10:41.030Z,3.17
2019-05-11T01:12:58.561Z,3.12
2019-05-11T01:15:29.398Z,3.67
2019-05-11T01:18:00.455Z,4.17
2019-05-11T01:20:31.145Z,3.90
2019-05-11T01:23:01.779Z,4.10
2019-05-11T01:25:32.501Z,3.40
2019-05-11T01:28:03.065Z,2.80
2019-05-11T01:30:34.138Z,3.30
2019-05-11T01:33:04.761Z,2.98
2019-05-11T01:35:35.390Z,2.80
2019-05-11T01:38:07.581Z,2.90
2019-05-11T01:40:38.317Z,2.50
2019-05-11T01:43:09.174Z,2.45
2019-05-11T01:45:40.187Z,2.42
2019-05-11T01:48:10.945Z,2.20
2019-05-11T01:50:41.554Z,2.20
2019-05-11T01:53:12.175Z,2.60
2019-05-11T01:55:42.853Z,2.40
2019-05-11T01:58:13.437Z,2.47
2019-05-11T02:00:44.427Z,2.65
2019-05-11T02:03:15.399Z,2.40
2019-05-11T02:05:46.155Z,2.50
2019-05-11T02:08:17.808Z,2.30
2019-05-11T02:10:48.413Z,2.58
2019-05-11T02:13:19.182Z,2.12
2019-05-11T02:15:49.823Z,2.47
2019-05-11T02:18:20.427Z,2.20
2019-05-11T02:20:51.273Z,2.70
2019-05-11T02:23:21.765Z,2.58
2019-05-11T02:25:52.395Z,3.12
2019-05-11T02:28:22.958Z,2.85
2019-05-11T02:30:53.747Z,2.67
2019-05-11T02:33:24.497Z,2.77
2019-05-11T02:35:55.195Z,2.90
2019-05-11T02:38:25.825Z,2.45
2019-05-11T02:40:56.332Z,2.70
2019-05-11T02:43:27.382Z,3.00
2019-05-11T02:45:57.970Z,2.60
2019-05-11T02:48:28.856Z,2.87
2019-05-11T02:51:00.003Z,2.50
2019-05-11T02:53:32.376Z,2.80
2019-05-11T02:56:04.452Z,2.40
2019-05-11T02:58:35.288Z,2.52
2019-05-11T03:01:05.986Z,2.20
2019-05-11T03:03:36.618Z,2.37
2019-05-11T03:06:07.178Z,2.65
2019-05-11T03:08:38.226Z,2.55
2019-05-11T03:11:08.836Z,2.17
2019-05-11T03:13:39.355Z,2.40
2019-05-11T03:16:10.592Z,2.22
2019-05-11T03:18:41.111Z,2.27
2019-05-11T03:21:12.032Z,2.62
2019-05-11T03:23:42.579Z,1.95
2019-05-11T03:26:13.153Z,1.80
2019-05-11T03:28:43.831Z,1.47
2019-05-11T03:31:14.490Z,1.67
2019-05-11T03:33:44.975Z,1.85
2019-05-11T03:36:15.491Z,1.45
2019-05-11T03:38:46.049Z,1.62
2019-05-11T03:41:16.873Z,1.37
2019-05-11T03:43:47.682Z,1.50
2019-05-11T03:46:18.551Z,1.10
2019-05-11T03:48:49.157Z,1.10
2019-05-11T03:51:20.030Z,1.30
2019-05-11T03:53:51.477Z,1.15
2019-05-11T03:56:22.195Z,1.27
2019-05-11T03:58:52.687Z,1.30
2019-05-11T04:01:23.580Z,1.27
2019-05-11T04:03:54.209Z,1.07
2019-05-11T04:06:24.863Z,1.10
2019-05-11T04:08:55.901Z,1.32
2019-05-11T04:11:26.566Z,1.10
2019-05-11T04:13:57.196Z,1.00
2019-05-11T04:16:27.978Z,1.10
2019-05-11T04:18:58.551Z,1.02
2019-05-11T04:21:29.365Z,1.10
2019-05-11T04:24:00.014Z,1.10
2019-05-11T04:26:30.632Z,1.32
2019-05-11T04:29:01.169Z,1.62
2019-05-11T04:31:31.643Z,2.00
2019-05-11T04:34:02.164Z,2.15
2019-05-11T04:36:32.741Z,2.30
2019-05-11T04:39:04.967Z,2.10
2019-05-11T04:41:35.463Z,2.00
2019-05-11T04:44:06.499Z,2.58
2019-05-11T04:46:37.069Z,2.33
2019-05-11T04:49:07.652Z,2.77
2019-05-11T04:51:39.713Z,2.50
2019-05-11T04:54:10.197Z,2.70
2019-05-11T04:56:40.785Z,2.70
2019-05-11T04:59:11.734Z,2.33
2019-05-11T05:01:42.326Z,2.58
2019-05-11T05:04:14.457Z,2.50
2019-05-11T05:06:58.856Z,2.72
2019-05-11T05:09:17.443Z,2.85
2019-05-11T05:11:48.018Z,2.72
2019-05-11T05:14:18.614Z,3.15
2019-05-11T05:16:49.549Z,2.72
2019-05-11T05:19:20.420Z,3.45
2019-05-11T05:21:51.225Z,3.30
2019-05-11T05:24:21.816Z,2.77
2019-05-11T05:26:52.523Z,3.22
2019-05-11T05:29:24.238Z,3.52
2019-05-11T05:31:55.938Z,3.27
2019-05-11T05:34:26.571Z,3.55
2019-05-11T05:36:57.058Z,4.08
2019-05-11T05:39:27.646Z,3.40
2019-05-11T05:41:58.163Z,4.10
2019-05-11T05:44:28.747Z,4.20
2019-05-11T05:46:59.311Z,4.22
2019-05-11T05:49:30.248Z,5.15
2019-05-11T05:52:00.753Z,4.50
2019-05-11T05:54:31.741Z,5.10
2019-05-11T05:57:02.243Z,4.87
2019-05-11T05:59:32.749Z,4.33
2019-05-11T06:02:03.433Z,4.45
2019-05-11T06:04:34.067Z,4.20
2019-05-11T06:07:04.772Z,4.80
2019-05-11T06:09:35.322Z,4.20
2019-05-11T06:12:05.938Z,3.40
2019-05-11T06:14:36.786Z,3.50
2019-05-11T06:17:07.481Z,3.77
2019-05-11T06:19:39.699Z,4.30
2019-05-11T06:22:10.326Z,3.55
2019-05-11T06:24:40.958Z,3.75
2019-05-11T06:27:11.485Z,4.47
2019-05-11T06:29:41.970Z,3.92
2019-05-11T06:32:12.874Z,3.98
2019-05-11T06:34:43.357Z,2.80
2019-05-11T06:37:14.062Z,3.00
2019-05-11T06:39:44.562Z,3.95
2019-05-11T06:42:15.079Z,3.37
2019-05-11T06:44:45.754Z,2.83
2019-05-11T06:47:16.448Z,2.42
2019-05-11T06:49:47.081Z,2.12
2019-05-11T06:52:17.597Z,1.90
2019-05-11T06:54:48.190Z,2.02
2019-05-11T06:57:20.453Z,1.55
2019-05-11T06:59:51.094Z,2.00
2019-05-11T07:02:21.592Z,1.60
2019-05-11T07:04:52.174Z,1.72
2019-05-11T07:07:22.671Z,1.57
2019-05-11T07:09:53.303Z,1.40
2019-05-11T07:12:27.470Z,1.32
2019-05-11T07:14:56.239Z,1.12
2019-05-11T07:17:26.742Z,1.20
2019-05-11T07:19:57.258Z,0.80
2019-05-11T07:22:27.762Z,0.98
2019-05-11T07:24:58.270Z,1.00
2019-05-11T07:27:28.798Z,0.88
2019-05-11T07:29:59.359Z,0.90
2019-05-11T07:32:30.012Z,1.37
2019-05-11T07:35:00.567Z,1.22
2019-05-11T07:37:32.158Z,1.12
2019-05-11T07:40:05.098Z,1.30
2019-05-11T07:42:37.930Z,1.50
2019-05-11T07:45:09.275Z,1.52
2019-05-11T07:47:41.418Z,1.50
2019-05-11T07:50:12.353Z,1.27
2019-05-11T07:52:42.978Z,1.35
2019-05-11T07:55:13.942Z,1.70
2019-05-11T07:57:44.435Z,1.32
2019-05-11T08:00:15.558Z,1.30
2019-05-11T08:02:47.997Z,1.45
2019-05-11T08:05:18.816Z,1.12
2019-05-11T08:07:49.320Z,1.50
2019-05-11T08:10:19.967Z,1.47
2019-05-11T08:12:50.459Z,1.67
2019-05-11T08:15:21.537Z,1.50
2019-05-11T08:17:52.458Z,1.37
2019-05-11T08:20:23.424Z,1.52
2019-05-11T08:22:54.255Z,1.17
2019-05-11T08:25:24.911Z,1.75
2019-05-11T08:27:55.653Z,1.45
2019-05-11T08:30:27.809Z,1.60
2019-05-11T08:32:58.658Z,1.80
2019-05-11T08:35:31.320Z,1.40
2019-05-11T08:38:01.789Z,1.37
2019-05-11T08:40:32.375Z,1.37
2019-05-11T08:43:03.075Z,1.40
2019-05-11T08:45:33.818Z,1.20
2019-05-11T08:48:04.469Z,1.70
2019-05-11T08:50:38.172Z,1.70
2019-05-11T08:53:08.708Z,1.37
2019-05-11T08:55:39.366Z,1.55
2019-05-11T08:58:10.138Z,1.55
2019-05-11T09:00:41.033Z,1.40
2019-05-11T09:03:11.688Z,1.98
2019-05-11T09:05:42.290Z,1.47
2019-05-11T09:08:12.953Z,1.20
2019-05-11T09:10:43.974Z,1.37
2019-05-11T09:13:14.809Z,1.30
2019-05-11T09:15:45.559Z,1.57
2019-05-11T09:18:18.571Z,1.40
2019-05-11T09:20:48.752Z,1.32
2019-05-11T09:23:33.638Z,1.45
2019-05-11T09:25:51.722Z,1.30
2019-05-11T09:28:22.383Z,1.90
2019-05-11T09:30:53.346Z,1.37
2019-05-11T09:33:24.050Z,1.10
2019-05-11T09:35:54.628Z,0.90
2019-05-11T09:38:27.697Z,1.30
2019-05-11T09:40:58.582Z,1.80
2019-05-11T09:43:29.317Z,1.25
2019-05-11T09:46:00.226Z,1.37
2019-05-11T09:48:30.823Z,1.02
2019-05-11T09:51:01.795Z,1.10
2019-05-11T09:53:32.400Z,1.10
2019-05-11T09:56:03.153Z,1.20
2019-05-11T09:58:34.206Z,1.80
2019-05-11T10:01:04.935Z,1.25
2019-05-11T10:03:35.434Z,1.15
2019-05-11T10:06:08.359Z,1.30
2019-05-11T10:08:38.683Z,1.22
2019-05-11T10:11:09.518Z,0.90
2019-05-11T10:13:41.398Z,1.10
2019-05-11T10:16:12.231Z,1.37
2019-05-11T10:18:42.867Z,1.12
2019-05-11T10:21:13.494Z,1.00
2019-05-11T10:23:44.287Z,1.12
2019-05-11T10:26:14.977Z,0.95
2019-05-11T10:28:47.945Z,1.37
2019-05-11T10:31:18.325Z,1.10
2019-05-11T10:33:49.263Z,1.12
2019-05-11T10:36:21.295Z,1.00
2019-05-11T10:38:51.922Z,1.50
2019-05-11T10:41:22.618Z,1.40
2019-05-11T10:43:53.498Z,3.05
2019-05-11T10:46:24.189Z,1.07
2019-05-11T10:48:54.933Z,1.20
2019-05-11T10:51:25.643Z,0.90
2019-05-11T10:53:57.883Z,0.68
2019-05-11T10:56:28.629Z,1.10
2019-05-11T10:59:00.177Z,0.95
2019-05-11T11:01:31.087Z,1.10
2019-05-11T11:04:01.707Z,1.00
2019-05-11T11:06:32.582Z,0.95
2019-05-11T11:09:03.545Z,0.70
2019-05-11T11:11:34.098Z,0.75
2019-05-11T11:14:04.862Z,0.90
2019-05-11T11:16:40.403Z,1.00
2019-05-11T11:19:08.413Z,1.15
2019-05-11T11:21:40.378Z,0.72
2019-05-11T11:24:11.213Z,0.82
2019-05-11T11:26:42.155Z,0.90
2019-05-11T11:29:12.781Z,0.78
2019-05-11T11:31:43.271Z,0.80
2019-05-11T11:34:13.849Z,1.17
2019-05-11T11:36:44.626Z,1.12
2019-05-11T11:39:15.215Z,0.82
2019-05-11T11:41:48.383Z,0.85
2019-05-11T11:44:18.641Z,0.70
2019-05-11T11:46:54.902Z,0.88
2019-05-11T11:49:21.751Z,0.70
2019-05-11T11:51:53.142Z,1.20
2019-05-11T11:54:23.768Z,1.17
2019-05-11T11:56:54.670Z,1.15
2019-05-11T11:59:25.282Z,1.32
2019-05-11T12:01:58.156Z,1.07
2019-05-11T12:04:28.558Z,0.98
2019-05-11T12:06:59.473Z,0.90
2019-05-11T12:09:31.427Z,0.80
2019-05-11T12:12:01.941Z,0.80
2019-05-11T12:14:32.433Z,0.80
2019-05-11T12:17:07.751Z,0.90
2019-05-11T12:19:35.187Z,1.15
2019-05-11T12:22:08.435Z,1.20
2019-05-11T12:24:38.154Z,1.00
2019-05-11T12:27:08.958Z,1.17
2019-05-11T12:29:39.727Z,1.12
2019-05-11T12:32:11.882Z,1.17
2019-05-11T12:34:42.778Z,1.12
2019-05-11T12:37:13.270Z,1.17
2019-05-11T12:39:44.073Z,1.07
2019-05-11T12:42:17.828Z,1.02
2019-05-11T12:44:48.298Z,1.10
2019-05-11T12:47:24.830Z,1.10
2019-05-11T12:49:51.445Z,1.30
2019-05-11T12:52:21.938Z,1.00
2019-05-11T12:54:52.869Z,1.10
2019-05-11T12:57:23.439Z,1.07
2019-05-11T12:59:54.030Z,0.80
2019-05-11T13:02:24.690Z,1.10
2019-05-11T13:04:58.346Z,0.80
2019-05-11T13:07:28.434Z,0.60
2019-05-11T13:09:59.434Z,0.80
2019-05-11T13:12:30.002Z,0.50
2019-05-11T13:15:00.639Z,0.70
2019-05-11T13:17:37.417Z,0.72
2019-05-11T13:20:05.415Z,0.45
2019-05-11T13:22:38.052Z,0.70
2019-05-11T13:25:08.874Z,0.40
2019-05-11T13:27:40.345Z,0.40
2019-05-11T13:30:11.309Z,0.50
2019-05-11T13:32:42.074Z,0.72
2019-05-11T13:35:12.910Z,0.60
2019-05-11T13:37:43.603Z,0.50
2019-05-11T13:40:15.619Z,0.55
2019-05-11T13:42:48.726Z,0.70
2019-05-11T13:45:18.950Z,0.47
2019-05-11T13:47:55.554Z,0.50
2019-05-11T13:50:21.765Z,0.42
2019-05-11T13:52:52.278Z,0.60
2019-05-11T13:55:22.946Z,0.37
2019-05-11T13:57:53.461Z,0.40
2019-05-11T14:00:24.404Z,0.50
2019-05-11T14:02:58.361Z,0.50
2019-05-11T14:05:28.813Z,0.65
2019-05-11T14:07:59.334Z,0.50
2019-05-11T14:10:29.845Z,0.50
2019-05-11T14:13:00.550Z,0.50
2019-05-11T14:15:31.138Z,0.40
2019-05-11T14:18:07.755Z,0.50
2019-05-11T14:20:33.949Z,0.40
2019-05-11T14:23:04.663Z,0.30
2019-05-11T14:25:35.175Z,0.50
2019-05-11T14:28:05.783Z,1.07
2019-05-11T14:30:38.014Z,0.50
2019-05-11T14:33:08.948Z,0.42
2019-05-11T14:35:40.883Z,0.50
2019-05-11T14:38:11.451Z,0.30
2019-05-11T14:40:42.152Z,0.60
2019-05-11T14:43:12.783Z,0.50
2019-05-11T14:45:43.685Z,0.40
2019-05-11T14:48:25.977Z,0.40
2019-05-11T14:50:48.725Z,1.40
2019-05-11T14:53:19.278Z,0.50
2019-05-11T14:55:49.899Z,0.40
2019-05-11T14:58:20.481Z,0.50
2019-05-11T15:00:51.046Z,0.80
2019-05-11T15:03:21.931Z,0.40
2019-05-11T15:05:52.509Z,0.60
2019-05-11T15:08:23.359Z,0.40
2019-05-11T15:10:53.874Z,0.30
2019-05-11T15:13:24.365Z,0.40
2019-05-11T15:15:55.282Z,0.50
2019-05-11T15:18:36.040Z,0.40
2019-05-11T15:20:58.184Z,0.50
2019-05-11T15:23:28.824Z,0.40
2019-05-11T15:25:59.650Z,0.60
2019-05-11T15:28:30.501Z,0.30
2019-05-11T15:31:01.023Z,0.40
2019-05-11T15:33:31.614Z,0.37
2019-05-11T15:36:02.586Z,0.30
2019-05-11T15:38:33.141Z,0.50
2019-05-11T15:41:03.658Z,0.60
2019-05-11T15:43:34.354Z,0.30
2019-05-11T15:46:05.014Z,0.47
2019-05-11T15:48:52.855Z,0.60
2019-05-11T15:51:08.168Z,0.40
2019-05-11T15:53:38.758Z,0.50
2019-05-11T15:56:09.313Z,0.60
2019-05-11T15:58:40.013Z,0.70
2019-05-11T16:01:10.644Z,0.30
2019-05-11T16:03:41.242Z,0.60
2019-05-11T16:06:11.755Z,0.50
2019-05-11T16:08:45.281Z,0.60
2019-05-11T16:11:14.385Z,0.45
2019-05-11T16:13:44.906Z,1.15
2019-05-11T16:16:15.531Z,0.70
2019-05-11T16:18:48.359Z,0.53
2019-05-11T16:21:18.697Z,0.40
2019-05-11T16:23:49.633Z,0.55
2019-05-11T16:26:20.334Z,0.37
2019-05-11T16:28:50.937Z,0.60
2019-05-11T16:31:21.602Z,0.62
2019-05-11T16:33:52.607Z,0.65
2019-05-11T16:36:23.301Z,0.70
2019-05-11T16:38:54.282Z,0.57
2019-05-11T16:41:24.973Z,0.68
2019-05-11T16:43:55.574Z,0.60
2019-05-11T16:46:28.288Z,0.70
2019-05-11T16:48:58.867Z,1.57
2019-05-11T16:51:29.451Z,0.62
2019-05-11T16:54:00.309Z,0.60
2019-05-11T16:56:30.822Z,0.50
2019-05-11T16:59:02.526Z,0.78
2019-05-11T17:01:33.110Z,0.60
2019-05-11T17:04:03.741Z,0.65
2019-05-11T17:06:34.432Z,0.60
2019-05-11T17:09:08.855Z,0.60
2019-05-11T17:11:39.482Z,0.78
2019-05-11T17:14:10.073Z,1.15
2019-05-11T17:16:40.717Z,0.60
2019-05-11T17:19:11.410Z,0.50
2019-05-11T17:21:41.970Z,0.90
2019-05-11T17:24:12.625Z,0.50
2019-05-11T17:26:43.302Z,0.57
2019-05-11T17:29:13.892Z,0.42
2019-05-11T17:31:44.498Z,0.40
2019-05-11T17:34:18.498Z,0.30
2019-05-11T17:36:47.514Z,0.50
2019-05-11T17:39:18.851Z,1.00
2019-05-11T17:41:50.664Z,0.68
2019-05-11T17:44:21.302Z,0.60
2019-05-11T17:46:51.804Z,0.70
2019-05-11T17:49:22.389Z,0.60
2019-05-11T17:51:52.998Z,0.72
2019-05-11T17:54:23.638Z,1.00
2019-05-11T17:56:54.248Z,1.02
2019-05-11T17:59:24.874Z,1.17
2019-05-11T18:01:55.370Z,1.62
2019-05-11T18:04:25.881Z,1.00
2019-05-11T18:06:58.859Z,0.90
2019-05-11T18:09:30.457Z,0.80
2019-05-11T18:12:01.373Z,0.78
2019-05-11T18:14:35.761Z,0.65
2019-05-11T18:17:04.565Z,1.27
2019-05-11T18:19:35.158Z,0.80
2019-05-11T18:22:08.177Z,1.00
2019-05-11T18:24:38.397Z,1.00
2019-05-11T18:27:09.110Z,1.37
2019-05-11T18:29:39.745Z,0.57
2019-05-11T18:32:10.398Z,0.60
2019-05-11T18:34:41.080Z,0.65
2019-05-11T18:37:11.662Z,0.53
2019-05-11T18:39:42.402Z,0.70
2019-05-11T18:42:12.898Z,0.60
2019-05-11T18:44:43.514Z,0.80
2019-05-11T18:47:14.210Z,1.25
2019-05-11T18:49:48.337Z,0.60
2019-05-11T18:52:18.852Z,0.53
2019-05-11T18:54:49.482Z,0.60
2019-05-11T18:57:20.065Z,0.60
2019-05-11T18:59:50.558Z,0.47
2019-05-11T19:02:21.253Z,0.45
2019-05-11T19:04:51.843Z,0.53
2019-05-11T19:07:23.498Z,0.40
2019-05-11T19:09:54.127Z,0.40
2019-05-11T19:12:24.803Z,0.47
2019-05-11T19:14:55.682Z,0.40
2019-05-11T19:17:28.884Z,0.40
2019-05-11T19:19:58.869Z,0.30
2019-05-11T19:22:29.723Z,0.30
2019-05-11T19:25:00.580Z,0.40
2019-05-11T19:27:31.175Z,0.50
2019-05-11T19:30:04.202Z,1.07
2019-05-11T19:32:35.150Z,1.75
2019-05-11T19:35:08.641Z,1.52
2019-05-11T19:37:39.333Z,1.75
2019-05-11T19:40:10.259Z,0.95
2019-05-11T19:42:54.569Z,1.37
2019-05-11T19:45:25.657Z,0.40
2019-05-11T19:47:57.755Z,1.30
2019-05-11T19:50:28.375Z,0.75
2019-05-11T19:52:59.006Z,0.80
2019-05-11T19:55:29.705Z,0.93
2019-05-11T19:58:00.521Z,0.78
2019-05-11T20:00:31.339Z,1.20
2019-05-11T20:03:01.962Z,0.80
2019-05-11T20:05:32.698Z,0.60
2019-05-11T20:08:03.292Z,0.60
2019-05-11T20:10:33.851Z,0.50
2019-05-11T20:13:04.507Z,0.95
2019-05-11T20:15:35.142Z,0.90
2019-05-11T20:18:08.055Z,0.50
2019-05-11T20:20:38.427Z,0.70
2019-05-11T20:23:09.118Z,0.40
2019-05-11T20:25:39.684Z,0.60
2019-05-11T20:28:11.423Z,0.60
2019-05-11T20:30:42.066Z,0.50
2019-05-11T20:33:12.696Z,0.50
2019-05-11T20:35:43.350Z,0.50
2019-05-11T20:38:13.911Z,1.10
2019-05-11T20:40:44.733Z,0.50
2019-05-11T20:43:15.591Z,0.60
2019-05-11T20:45:48.576Z,0.68
2019-05-11T20:48:18.685Z,0.90
2019-05-11T20:50:50.330Z,0.82
2019-05-11T20:53:21.005Z,1.10
2019-05-11T20:55:51.523Z,0.40
2019-05-11T20:58:22.325Z,0.45
2019-05-11T21:00:52.931Z,0.40
2019-05-11T21:03:23.625Z,0.90
2019-05-11T21:05:54.498Z,0.50
2019-05-11T21:08:25.330Z,0.60
2019-05-11T21:10:57.645Z,0.30
2019-05-11T21:13:28.651Z,0.40
2019-05-11T21:15:59.346Z,0.80
2019-05-11T21:18:31.259Z,0.60
2019-05-11T21:21:01.750Z,0.60
2019-05-11T21:23:32.593Z,0.40
2019-05-11T21:26:03.449Z,0.42
2019-05-11T21:28:34.210Z,0.40
2019-05-11T21:31:08.039Z,0.30
2019-05-11T21:33:38.327Z,0.30
2019-05-11T21:36:08.962Z,0.30
2019-05-11T21:38:39.463Z,0.62
2019-05-11T21:41:09.958Z,0.25
2019-05-11T21:43:40.535Z,0.30
2019-05-11T21:46:11.131Z,0.28
2019-05-11T21:48:41.754Z,0.30
2019-05-11T21:51:12.486Z,0.33
2019-05-11T21:53:43.066Z,0.40
2019-05-11T21:56:13.557Z,0.40
2019-05-11T21:58:44.233Z,0.50
2019-05-11T22:01:14.857Z,0.40
2019-05-11T22:03:47.935Z,0.40
2019-05-11T22:06:18.321Z,0.40
2019-05-11T22:08:50.790Z,0.68
2019-05-11T22:11:21.074Z,0.50
2019-05-11T22:13:51.650Z,0.50
2019-05-11T22:16:22.156Z,0.60
2019-05-11T22:18:52.776Z,0.72
2019-05-11T22:21:23.351Z,0.60
2019-05-11T22:23:53.839Z,0.70
2019-05-11T22:26:24.455Z,0.70
2019-05-11T22:28:55.337Z,0.68
2019-05-11T22:31:27.852Z,0.80
2019-05-11T22:33:58.406Z,0.85
2019-05-11T22:36:29.126Z,0.80
2019-05-11T22:39:00.681Z,0.80
2019-05-11T22:41:32.933Z,0.70
2019-05-11T22:44:04.325Z,0.80
2019-05-11T22:46:34.974Z,0.70
2019-05-11T22:49:05.530Z,0.80
2019-05-11T22:51:36.290Z,0.98
2019-05-11T22:54:11.147Z,0.60
2019-05-11T22:56:40.359Z,0.88
2019-05-11T22:59:12.027Z,0.80
2019-05-11T23:01:44.046Z,1.12
2019-05-11T23:04:14.601Z,1.20
2019-05-11T23:06:45.242Z,0.95
2019-05-11T23:09:15.793Z,1.17
2019-05-11T23:11:48.274Z,1.10
2019-05-11T23:14:19.904Z,2.10
2019-05-11T23:16:51.069Z,1.02
2019-05-11T23:19:21.669Z,1.52
2019-05-11T23:21:52.262Z,2.02
2019-05-11T23:24:23.189Z,5.28
2019-05-11T23:26:54.891Z,1.47
2019-05-11T23:29:27.787Z,1.15
2019-05-11T23:31:58.363Z,1.42
2019-05-11T23:34:29.443Z,1.75
2019-05-11T23:37:00.106Z,1.60
2019-05-11T23:39:30.682Z,1.50
2019-05-11T23:42:01.285Z,1.90
2019-05-11T23:44:31.925Z,1.55
2019-05-11T23:47:02.527Z,1.80
2019-05-11T23:49:33.036Z,1.90
2019-05-11T23:52:03.590Z,2.12
2019-05-11T23:54:34.469Z,2.08
2019-05-11T23:57:09.083Z,1.95
2019-05-11T23:59:37.437Z,2.20
